sensor_id;sensor_type;location;lat;lon;timestamp;P1;durP1;ratioP1;P2;durP2;ratioP2
75340;SDS011;64931;47.562;18.920;2022-11-20T00:02:19;19.00;;;9.10;;
75340;SDS011;64931;47.562;18.920;2022-11-20T00:04:44;20.50;;;8.70;;
75340;SDS011;64931;47.562;18.920;2022-11-20T00:07:09;21.00;;;9.70;;
75340;SDS011;64931;47.562;18.920;2022-11-20T00:09:35;24.00;;;12.30;;
75340;SDS011;64931;47.562;18.920;2022-11-20T00:12:00;26.80;;;12.80;;
75340;SDS011;64931;47.562;18.920;2022-11-20T00:14:25;20.50;;;10.30;;
75340;SDS011;64931;47.562;18.920;2022-11-20T00:16:51;18.80;;;9.30;;
75340;SDS011;64931;47.562;18.920;2022-11-20T00:19:16;15.20;;;7.60;;
75340;SDS011;64931;47.562;18.920;2022-11-20T00:21:42;16.70;;;7.80;;
75340;SDS011;64931;47.562;18.920;2022-11-20T00:24:08;17.00;;;8.90;;
75340;SDS011;64931;47.562;18.920;2022-11-20T00:26:34;17.70;;;8.40;;
75340;SDS011;64931;47.562;18.920;2022-11-20T00:29:00;17.80;;;9.30;;
75340;SDS011;64931;47.562;18.920;2022-11-20T00:31:26;17.50;;;8.70;;
75340;SDS011;64931;47.562;18.920;2022-11-20T00:33:52;16.60;;;8.30;;
75340;SDS011;64931;47.562;18.920;2022-11-20T00:36:19;18.40;;;9.20;;
75340;SDS011;64931;47.562;18.920;2022-11-20T00:38:52;18.20;;;8.90;;
75340;SDS011;64931;47.562;18.920;2022-11-20T00:41:19;20.20;;;9.30;;
75340;SDS011;64931;47.562;18.920;2022-11-20T00:43:44;19.10;;;8.50;;
75340;SDS011;64931;47.562;18.920;2022-11-20T00:46:13;15.70;;;7.80;;
75340;SDS011;64931;47.562;18.920;2022-11-20T00:48:43;16.10;;;7.70;;
75340;SDS011;64931;47.562;18.920;2022-11-20T00:51:09;15.10;;;8.00;;
75340;SDS011;64931;47.562;18.920;2022-11-20T00:53:35;17.80;;;8.40;;
75340;SDS011;64931;47.562;18.920;2022-11-20T00:56:02;15.80;;;7.30;;
75340;SDS011;64931;47.562;18.920;2022-11-20T01:01:03;14.30;;;6.80;;
75340;SDS011;64931;47.562;18.920;2022-11-20T01:03:30;16.10;;;7.60;;
75340;SDS011;64931;47.562;18.920;2022-11-20T01:06:01;18.30;;;8.40;;
75340;SDS011;64931;47.562;18.920;2022-11-20T01:08:31;16.60;;;8.30;;
75340;SDS011;64931;47.562;18.920;2022-11-20T01:10:59;14.30;;;7.10;;
75340;SDS011;64931;47.562;18.920;2022-11-20T01:13:25;16.20;;;8.10;;
75340;SDS011;64931;47.562;18.920;2022-11-20T01:16:04;16.40;;;7.40;;
75340;SDS011;64931;47.562;18.920;2022-11-20T01:18:34;15.20;;;7.40;;
75340;SDS011;64931;47.562;18.920;2022-11-20T01:21:01;17.30;;;7.70;;
75340;SDS011;64931;47.562;18.920;2022-11-20T01:23:34;17.10;;;8.60;;
75340;SDS011;64931;47.562;18.920;2022-11-20T01:26:01;21.90;;;9.10;;
75340;SDS011;64931;47.562;18.920;2022-11-20T01:28:28;13.70;;;7.00;;
75340;SDS011;64931;47.562;18.920;2022-11-20T01:30:53;17.00;;;8.10;;
75340;SDS011;64931;47.562;18.920;2022-11-20T01:33:19;14.20;;;6.80;;
75340;SDS011;64931;47.562;18.920;2022-11-20T01:35:44;16.10;;;7.20;;
75340;SDS011;64931;47.562;18.920;2022-11-20T01:38:10;17.00;;;7.20;;
75340;SDS011;64931;47.562;18.920;2022-11-20T01:40:35;17.90;;;8.20;;
75340;SDS011;64931;47.562;18.920;2022-11-20T01:43:17;15.90;;;7.30;;
75340;SDS011;64931;47.562;18.920;2022-11-20T01:48:18;14.30;;;6.70;;
75340;SDS011;64931;47.562;18.920;2022-11-20T01:50:44;20.10;;;9.20;;
75340;SDS011;64931;47.562;18.920;2022-11-20T01:53:12;18.60;;;9.50;;
75340;SDS011;64931;47.562;18.920;2022-11-20T01:55:44;23.10;;;10.60;;
75340;SDS011;64931;47.562;18.920;2022-11-20T01:58:12;20.20;;;10.50;;
75340;SDS011;64931;47.562;18.920;2022-11-20T02:00:38;15.70;;;8.10;;
75340;SDS011;64931;47.562;18.920;2022-11-20T02:03:05;19.40;;;8.80;;
75340;SDS011;64931;47.562;18.920;2022-11-20T02:05:35;15.60;;;7.50;;
75340;SDS011;64931;47.562;18.920;2022-11-20T02:08:04;18.20;;;8.40;;
75340;SDS011;64931;47.562;18.920;2022-11-20T02:10:31;21.60;;;9.00;;
75340;SDS011;64931;47.562;18.920;2022-11-20T02:12:57;18.10;;;7.60;;
75340;SDS011;64931;47.562;18.920;2022-11-20T02:15:41;17.30;;;8.10;;
75340;SDS011;64931;47.562;18.920;2022-11-20T02:18:07;16.50;;;8.20;;
75340;SDS011;64931;47.562;18.920;2022-11-20T02:20:34;15.50;;;7.50;;
75340;SDS011;64931;47.562;18.920;2022-11-20T02:23:05;14.70;;;7.40;;
75340;SDS011;64931;47.562;18.920;2022-11-20T02:25:53;17.40;;;8.30;;
75340;SDS011;64931;47.562;18.920;2022-11-20T02:28:19;16.70;;;8.00;;
75340;SDS011;64931;47.562;18.920;2022-11-20T02:30:44;17.10;;;7.70;;
75340;SDS011;64931;47.562;18.920;2022-11-20T02:33:10;17.00;;;7.40;;
75340;SDS011;64931;47.562;18.920;2022-11-20T02:35:38;16.00;;;7.50;;
75340;SDS011;64931;47.562;18.920;2022-11-20T02:38:05;17.00;;;7.90;;
75340;SDS011;64931;47.562;18.920;2022-11-20T02:40:31;16.00;;;7.50;;
75340;SDS011;64931;47.562;18.920;2022-11-20T02:42:56;15.20;;;7.10;;
75340;SDS011;64931;47.562;18.920;2022-11-20T02:45:22;16.70;;;7.20;;
75340;SDS011;64931;47.562;18.920;2022-11-20T02:47:48;17.00;;;7.40;;
75340;SDS011;64931;47.562;18.920;2022-11-20T02:50:14;15.80;;;7.70;;
75340;SDS011;64931;47.562;18.920;2022-11-20T02:52:40;16.50;;;8.00;;
75340;SDS011;64931;47.562;18.920;2022-11-20T02:55:05;17.80;;;7.70;;
75340;SDS011;64931;47.562;18.920;2022-11-20T02:57:31;14.70;;;7.00;;
75340;SDS011;64931;47.562;18.920;2022-11-20T02:59:56;17.40;;;8.30;;
75340;SDS011;64931;47.562;18.920;2022-11-20T03:02:22;16.20;;;7.60;;
75340;SDS011;64931;47.562;18.920;2022-11-20T03:04:47;15.20;;;7.30;;
75340;SDS011;64931;47.562;18.920;2022-11-20T03:07:13;14.70;;;6.70;;
75340;SDS011;64931;47.562;18.920;2022-11-20T03:09:38;17.90;;;7.10;;
75340;SDS011;64931;47.562;18.920;2022-11-20T03:12:03;15.90;;;7.50;;
75340;SDS011;64931;47.562;18.920;2022-11-20T03:14:29;18.10;;;7.90;;
75340;SDS011;64931;47.562;18.920;2022-11-20T03:16:55;16.10;;;7.10;;
75340;SDS011;64931;47.562;18.920;2022-11-20T03:19:20;16.30;;;7.70;;
75340;SDS011;64931;47.562;18.920;2022-11-20T03:21:46;16.30;;;7.80;;
75340;SDS011;64931;47.562;18.920;2022-11-20T03:24:12;17.30;;;7.00;;
75340;SDS011;64931;47.562;18.920;2022-11-20T03:26:38;16.10;;;7.30;;
75340;SDS011;64931;47.562;18.920;2022-11-20T03:29:04;15.70;;;7.40;;
75340;SDS011;64931;47.562;18.920;2022-11-20T03:31:31;17.90;;;7.90;;
75340;SDS011;64931;47.562;18.920;2022-11-20T03:33:57;17.20;;;8.00;;
75340;SDS011;64931;47.562;18.920;2022-11-20T03:36:25;14.90;;;6.70;;
75340;SDS011;64931;47.562;18.920;2022-11-20T03:38:52;14.80;;;7.00;;
75340;SDS011;64931;47.562;18.920;2022-11-20T03:41:19;14.10;;;7.00;;
75340;SDS011;64931;47.562;18.920;2022-11-20T03:46:18;14.60;;;7.10;;
75340;SDS011;64931;47.562;18.920;2022-11-20T03:48:45;14.80;;;6.90;;
75340;SDS011;64931;47.562;18.920;2022-11-20T03:51:29;15.90;;;8.00;;
75340;SDS011;64931;47.562;18.920;2022-11-20T03:53:57;18.00;;;8.10;;
75340;SDS011;64931;47.562;18.920;2022-11-20T03:56:26;20.90;;;9.20;;
75340;SDS011;64931;47.562;18.920;2022-11-20T03:58:53;17.60;;;8.20;;
75340;SDS011;64931;47.562;18.920;2022-11-20T04:01:19;16.40;;;7.70;;
75340;SDS011;64931;47.562;18.920;2022-11-20T04:03:46;19.00;;;9.50;;
75340;SDS011;64931;47.562;18.920;2022-11-20T04:06:15;14.60;;;7.20;;
75340;SDS011;64931;47.562;18.920;2022-11-20T04:08:42;17.40;;;8.30;;
75340;SDS011;64931;47.562;18.920;2022-11-20T04:11:15;18.00;;;8.80;;
75340;SDS011;64931;47.562;18.920;2022-11-20T04:13:45;16.40;;;8.60;;
75340;SDS011;64931;47.562;18.920;2022-11-20T04:16:11;20.30;;;9.90;;
75340;SDS011;64931;47.562;18.920;2022-11-20T04:18:37;18.00;;;8.90;;
75340;SDS011;64931;47.562;18.920;2022-11-20T04:21:03;18.30;;;8.90;;
75340;SDS011;64931;47.562;18.920;2022-11-20T04:23:28;19.60;;;10.20;;
75340;SDS011;64931;47.562;18.920;2022-11-20T04:25:54;19.30;;;9.40;;
75340;SDS011;64931;47.562;18.920;2022-11-20T04:28:19;18.00;;;8.70;;
75340;SDS011;64931;47.562;18.920;2022-11-20T04:30:45;18.80;;;9.30;;
75340;SDS011;64931;47.562;18.920;2022-11-20T04:33:11;17.90;;;8.50;;
75340;SDS011;64931;47.562;18.920;2022-11-20T04:35:36;16.10;;;7.20;;
75340;SDS011;64931;47.562;18.920;2022-11-20T04:38:02;15.80;;;7.50;;
75340;SDS011;64931;47.562;18.920;2022-11-20T04:40:28;18.30;;;9.20;;
75340;SDS011;64931;47.562;18.920;2022-11-20T04:42:54;20.70;;;9.80;;
75340;SDS011;64931;47.562;18.920;2022-11-20T04:45:20;20.30;;;9.80;;
75340;SDS011;64931;47.562;18.920;2022-11-20T04:47:45;21.10;;;9.20;;
75340;SDS011;64931;47.562;18.920;2022-11-20T04:50:11;17.50;;;8.50;;
75340;SDS011;64931;47.562;18.920;2022-11-20T04:52:36;19.40;;;9.30;;
75340;SDS011;64931;47.562;18.920;2022-11-20T04:55:02;25.80;;;11.20;;
75340;SDS011;64931;47.562;18.920;2022-11-20T04:57:27;18.90;;;8.30;;
75340;SDS011;64931;47.562;18.920;2022-11-20T04:59:53;20.10;;;9.30;;
75340;SDS011;64931;47.562;18.920;2022-11-20T05:02:18;16.00;;;8.00;;
75340;SDS011;64931;47.562;18.920;2022-11-20T05:04:43;18.50;;;8.70;;
75340;SDS011;64931;47.562;18.920;2022-11-20T05:07:09;17.90;;;9.30;;
75340;SDS011;64931;47.562;18.920;2022-11-20T05:09:34;17.40;;;8.80;;
75340;SDS011;64931;47.562;18.920;2022-11-20T05:12:00;16.40;;;7.80;;
75340;SDS011;64931;47.562;18.920;2022-11-20T05:14:25;20.20;;;8.70;;
75340;SDS011;64931;47.562;18.920;2022-11-20T05:16:50;18.70;;;8.60;;
75340;SDS011;64931;47.562;18.920;2022-11-20T05:19:16;20.60;;;10.00;;
75340;SDS011;64931;47.562;18.920;2022-11-20T05:21:41;15.30;;;7.90;;
75340;SDS011;64931;47.562;18.920;2022-11-20T05:24:06;17.70;;;7.80;;
75340;SDS011;64931;47.562;18.920;2022-11-20T05:26:32;17.70;;;8.60;;
75340;SDS011;64931;47.562;18.920;2022-11-20T05:28:57;16.70;;;8.20;;
75340;SDS011;64931;47.562;18.920;2022-11-20T05:31:24;15.70;;;7.80;;
75340;SDS011;64931;47.562;18.920;2022-11-20T05:33:49;17.90;;;8.20;;
75340;SDS011;64931;47.562;18.920;2022-11-20T05:36:15;18.30;;;8.60;;
75340;SDS011;64931;47.562;18.920;2022-11-20T05:38:42;17.30;;;7.40;;
75340;SDS011;64931;47.562;18.920;2022-11-20T05:41:09;17.50;;;7.70;;
75340;SDS011;64931;47.562;18.920;2022-11-20T05:43:38;19.80;;;9.50;;
75340;SDS011;64931;47.562;18.920;2022-11-20T05:46:05;15.20;;;7.00;;
75340;SDS011;64931;47.562;18.920;2022-11-20T05:48:32;23.00;;;9.30;;
75340;SDS011;64931;47.562;18.920;2022-11-20T05:50:59;17.40;;;7.90;;
75340;SDS011;64931;47.562;18.920;2022-11-20T05:53:25;20.70;;;10.00;;
75340;SDS011;64931;47.562;18.920;2022-11-20T05:56:10;16.70;;;8.80;;
75340;SDS011;64931;47.562;18.920;2022-11-20T05:58:37;19.90;;;8.90;;
75340;SDS011;64931;47.562;18.920;2022-11-20T06:01:06;24.20;;;11.90;;
75340;SDS011;64931;47.562;18.920;2022-11-20T06:03:33;24.20;;;11.30;;
75340;SDS011;64931;47.562;18.920;2022-11-20T06:05:59;18.00;;;8.30;;
75340;SDS011;64931;47.562;18.920;2022-11-20T06:08:25;17.90;;;8.80;;
75340;SDS011;64931;47.562;18.920;2022-11-20T06:10:50;17.10;;;8.00;;
75340;SDS011;64931;47.562;18.920;2022-11-20T06:13:16;19.30;;;9.60;;
75340;SDS011;64931;47.562;18.920;2022-11-20T06:15:41;20.90;;;10.50;;
75340;SDS011;64931;47.562;18.920;2022-11-20T06:18:06;22.00;;;10.40;;
75340;SDS011;64931;47.562;18.920;2022-11-20T06:20:32;23.10;;;11.00;;
75340;SDS011;64931;47.562;18.920;2022-11-20T06:22:57;18.30;;;9.00;;
75340;SDS011;64931;47.562;18.920;2022-11-20T06:25:22;19.40;;;9.80;;
75340;SDS011;64931;47.562;18.920;2022-11-20T06:27:48;16.60;;;8.30;;
75340;SDS011;64931;47.562;18.920;2022-11-20T06:30:13;19.00;;;9.70;;
75340;SDS011;64931;47.562;18.920;2022-11-20T06:32:39;18.20;;;9.00;;
75340;SDS011;64931;47.562;18.920;2022-11-20T06:35:04;21.10;;;9.50;;
75340;SDS011;64931;47.562;18.920;2022-11-20T06:37:30;21.90;;;10.10;;
75340;SDS011;64931;47.562;18.920;2022-11-20T06:39:55;21.70;;;10.40;;
75340;SDS011;64931;47.562;18.920;2022-11-20T06:42:21;18.30;;;9.10;;
75340;SDS011;64931;47.562;18.920;2022-11-20T06:44:46;18.40;;;9.70;;
75340;SDS011;64931;47.562;18.920;2022-11-20T06:47:11;19.70;;;9.50;;
75340;SDS011;64931;47.562;18.920;2022-11-20T06:49:37;17.10;;;8.80;;
75340;SDS011;64931;47.562;18.920;2022-11-20T06:52:03;17.80;;;8.50;;
75340;SDS011;64931;47.562;18.920;2022-11-20T06:54:29;15.40;;;7.90;;
75340;SDS011;64931;47.562;18.920;2022-11-20T06:56:54;17.60;;;8.60;;
75340;SDS011;64931;47.562;18.920;2022-11-20T06:59:20;15.70;;;7.70;;
75340;SDS011;64931;47.562;18.920;2022-11-20T07:01:46;12.30;;;6.90;;
75340;SDS011;64931;47.562;18.920;2022-11-20T07:04:11;12.70;;;6.50;;
75340;SDS011;64931;47.562;18.920;2022-11-20T07:06:37;11.00;;;4.50;;
75340;SDS011;64931;47.562;18.920;2022-11-20T07:09:02;13.30;;;7.40;;
75340;SDS011;64931;47.562;18.920;2022-11-20T07:11:28;20.00;;;9.50;;
75340;SDS011;64931;47.562;18.920;2022-11-20T07:13:53;26.80;;;13.20;;
75340;SDS011;64931;47.562;18.920;2022-11-20T07:16:18;24.00;;;12.00;;
75340;SDS011;64931;47.562;18.920;2022-11-20T07:18:44;20.00;;;10.20;;
75340;SDS011;64931;47.562;18.920;2022-11-20T07:21:09;18.60;;;9.90;;
75340;SDS011;64931;47.562;18.920;2022-11-20T07:23:35;21.20;;;9.60;;
75340;SDS011;64931;47.562;18.920;2022-11-20T07:26:04;20.10;;;10.00;;
75340;SDS011;64931;47.562;18.920;2022-11-20T07:28:31;23.40;;;11.30;;
75340;SDS011;64931;47.562;18.920;2022-11-20T07:30:57;18.20;;;9.40;;
75340;SDS011;64931;47.562;18.920;2022-11-20T07:33:22;19.10;;;9.60;;
75340;SDS011;64931;47.562;18.920;2022-11-20T07:35:48;18.80;;;10.20;;
75340;SDS011;64931;47.562;18.920;2022-11-20T07:38:13;21.90;;;11.00;;
75340;SDS011;64931;47.562;18.920;2022-11-20T07:40:39;20.20;;;10.50;;
75340;SDS011;64931;47.562;18.920;2022-11-20T07:43:04;23.90;;;12.80;;
75340;SDS011;64931;47.562;18.920;2022-11-20T07:45:29;22.80;;;11.40;;
75340;SDS011;64931;47.562;18.920;2022-11-20T07:47:55;21.90;;;11.70;;
75340;SDS011;64931;47.562;18.920;2022-11-20T07:50:20;20.50;;;9.80;;
75340;SDS011;64931;47.562;18.920;2022-11-20T07:52:46;21.20;;;11.00;;
75340;SDS011;64931;47.562;18.920;2022-11-20T07:55:11;21.70;;;11.00;;
75340;SDS011;64931;47.562;18.920;2022-11-20T07:57:37;22.90;;;11.70;;
75340;SDS011;64931;47.562;18.920;2022-11-20T08:00:03;26.30;;;13.70;;
75340;SDS011;64931;47.562;18.920;2022-11-20T08:02:29;19.10;;;10.50;;
75340;SDS011;64931;47.562;18.920;2022-11-20T08:04:55;18.50;;;10.40;;
75340;SDS011;64931;47.562;18.920;2022-11-20T08:07:20;19.50;;;11.00;;
75340;SDS011;64931;47.562;18.920;2022-11-20T08:09:46;21.40;;;11.00;;
75340;SDS011;64931;47.562;18.920;2022-11-20T08:12:16;20.40;;;11.00;;
75340;SDS011;64931;47.562;18.920;2022-11-20T08:15:03;20.60;;;10.70;;
75340;SDS011;64931;47.562;18.920;2022-11-20T08:17:29;20.40;;;11.20;;
75340;SDS011;64931;47.562;18.920;2022-11-20T08:19:54;23.80;;;13.10;;
75340;SDS011;64931;47.562;18.920;2022-11-20T08:22:20;21.40;;;11.70;;
75340;SDS011;64931;47.562;18.920;2022-11-20T08:24:45;18.20;;;10.10;;
75340;SDS011;64931;47.562;18.920;2022-11-20T08:27:11;20.20;;;10.40;;
75340;SDS011;64931;47.562;18.920;2022-11-20T08:29:37;23.70;;;13.10;;
75340;SDS011;64931;47.562;18.920;2022-11-20T08:32:02;27.20;;;14.10;;
75340;SDS011;64931;47.562;18.920;2022-11-20T08:34:28;26.30;;;13.70;;
75340;SDS011;64931;47.562;18.920;2022-11-20T08:36:53;25.40;;;12.50;;
75340;SDS011;64931;47.562;18.920;2022-11-20T08:39:18;21.90;;;12.70;;
75340;SDS011;64931;47.562;18.920;2022-11-20T08:41:44;20.80;;;10.90;;
75340;SDS011;64931;47.562;18.920;2022-11-20T08:44:09;20.40;;;10.50;;
75340;SDS011;64931;47.562;18.920;2022-11-20T08:46:38;20.30;;;11.40;;
75340;SDS011;64931;47.562;18.920;2022-11-20T08:49:09;28.20;;;14.80;;
75340;SDS011;64931;47.562;18.920;2022-11-20T08:51:36;26.50;;;14.70;;
75340;SDS011;64931;47.562;18.920;2022-11-20T08:54:02;23.40;;;13.50;;
75340;SDS011;64931;47.562;18.920;2022-11-20T08:56:28;24.80;;;14.20;;
75340;SDS011;64931;47.562;18.920;2022-11-20T08:58:54;20.00;;;12.10;;
75340;SDS011;64931;47.562;18.920;2022-11-20T09:01:20;21.90;;;12.30;;
75340;SDS011;64931;47.562;18.920;2022-11-20T09:03:46;18.70;;;10.80;;
75340;SDS011;64931;47.562;18.920;2022-11-20T09:06:12;20.10;;;11.70;;
75340;SDS011;64931;47.562;18.920;2022-11-20T09:08:38;22.20;;;12.70;;
75340;SDS011;64931;47.562;18.920;2022-11-20T09:11:04;20.40;;;10.70;;
75340;SDS011;64931;47.562;18.920;2022-11-20T09:13:30;22.70;;;13.00;;
75340;SDS011;64931;47.562;18.920;2022-11-20T09:15:58;24.00;;;13.80;;
75340;SDS011;64931;47.562;18.920;2022-11-20T09:18:24;20.30;;;11.40;;
75340;SDS011;64931;47.562;18.920;2022-11-20T09:20:50;20.30;;;11.20;;
75340;SDS011;64931;47.562;18.920;2022-11-20T09:23:16;18.30;;;11.00;;
75340;SDS011;64931;47.562;18.920;2022-11-20T09:25:42;19.10;;;11.10;;
75340;SDS011;64931;47.562;18.920;2022-11-20T09:28:08;24.40;;;13.40;;
75340;SDS011;64931;47.562;18.920;2022-11-20T09:30:34;21.10;;;11.60;;
75340;SDS011;64931;47.562;18.920;2022-11-20T09:32:59;16.70;;;10.30;;
75340;SDS011;64931;47.562;18.920;2022-11-20T09:35:24;16.80;;;9.70;;
75340;SDS011;64931;47.562;18.920;2022-11-20T09:37:50;18.60;;;10.80;;
75340;SDS011;64931;47.562;18.920;2022-11-20T09:40:20;15.30;;;9.40;;
75340;SDS011;64931;47.562;18.920;2022-11-20T09:43:35;16.80;;;9.50;;
75340;SDS011;64931;47.562;18.920;2022-11-20T09:54:17;9.10;;;5.20;;
75340;SDS011;64931;47.562;18.920;2022-11-20T09:56:49;9.70;;;5.60;;
75340;SDS011;64931;47.562;18.920;2022-11-20T09:59:32;8.90;;;4.90;;
75340;SDS011;64931;47.562;18.920;2022-11-20T10:01:59;8.60;;;4.80;;
75340;SDS011;64931;47.562;18.920;2022-11-20T10:04:26;10.00;;;5.40;;
75340;SDS011;64931;47.562;18.920;2022-11-20T10:09:43;10.30;;;5.80;;
75340;SDS011;64931;47.562;18.920;2022-11-20T10:12:28;10.40;;;5.90;;
75340;SDS011;64931;47.562;18.920;2022-11-20T10:15:18;11.60;;;6.40;;
75340;SDS011;64931;47.562;18.920;2022-11-20T10:21:08;13.30;;;7.30;;
75340;SDS011;64931;47.562;18.920;2022-11-20T10:29:13;11.80;;;7.00;;
75340;SDS011;64931;47.562;18.920;2022-11-20T10:31:41;10.70;;;6.30;;
75340;SDS011;64931;47.562;18.920;2022-11-20T10:36:46;11.90;;;6.80;;
75340;SDS011;64931;47.562;18.920;2022-11-20T10:39:34;12.90;;;7.30;;
75340;SDS011;64931;47.562;18.920;2022-11-20T10:42:03;11.50;;;6.50;;
75340;SDS011;64931;47.562;18.920;2022-11-20T10:44:37;13.00;;;9.10;;
75340;SDS011;64931;47.562;18.920;2022-11-20T10:47:24;13.10;;;7.80;;
75340;SDS011;64931;47.562;18.920;2022-11-20T10:49:51;14.50;;;9.20;;
75340;SDS011;64931;47.562;18.920;2022-11-20T11:00:23;20.00;;;12.60;;
75340;SDS011;64931;47.562;18.920;2022-11-20T11:02:52;19.70;;;12.10;;
75340;SDS011;64931;47.562;18.920;2022-11-20T11:08:01;20.50;;;14.10;;
75340;SDS011;64931;47.562;18.920;2022-11-20T11:13:06;19.60;;;12.00;;
75340;SDS011;64931;47.562;18.920;2022-11-20T11:15:39;22.60;;;14.70;;
75340;SDS011;64931;47.562;18.920;2022-11-20T11:18:08;23.70;;;14.90;;
75340;SDS011;64931;47.562;18.920;2022-11-20T11:20:35;23.30;;;15.00;;
75340;SDS011;64931;47.562;18.920;2022-11-20T11:23:01;22.80;;;15.10;;
75340;SDS011;64931;47.562;18.920;2022-11-20T11:25:30;23.00;;;14.40;;
75340;SDS011;64931;47.562;18.920;2022-11-20T11:28:01;23.90;;;14.50;;
75340;SDS011;64931;47.562;18.920;2022-11-20T11:30:29;23.00;;;13.40;;
75340;SDS011;64931;47.562;18.920;2022-11-20T11:33:03;26.60;;;15.60;;
75340;SDS011;64931;47.562;18.920;2022-11-20T11:35:31;24.70;;;16.70;;
75340;SDS011;64931;47.562;18.920;2022-11-20T11:38:06;26.30;;;16.90;;
75340;SDS011;64931;47.562;18.920;2022-11-20T11:40:37;27.60;;;16.60;;
75340;SDS011;64931;47.562;18.920;2022-11-20T11:43:07;25.50;;;17.20;;
75340;SDS011;64931;47.562;18.920;2022-11-20T11:46:01;27.10;;;16.60;;
75340;SDS011;64931;47.562;18.920;2022-11-20T11:48:27;26.60;;;16.50;;
75340;SDS011;64931;47.562;18.920;2022-11-20T11:50:52;28.40;;;15.80;;
75340;SDS011;64931;47.562;18.920;2022-11-20T11:53:22;29.30;;;16.80;;
75340;SDS011;64931;47.562;18.920;2022-11-20T11:56:08;26.90;;;17.60;;
75340;SDS011;64931;47.562;18.920;2022-11-20T11:58:47;26.40;;;16.40;;
75340;SDS011;64931;47.562;18.920;2022-11-20T12:03:59;29.50;;;17.60;;
75340;SDS011;64931;47.562;18.920;2022-11-20T12:06:42;28.40;;;17.80;;
75340;SDS011;64931;47.562;18.920;2022-11-20T12:09:09;30.50;;;18.00;;
75340;SDS011;64931;47.562;18.920;2022-11-20T12:11:54;27.70;;;17.90;;
75340;SDS011;64931;47.562;18.920;2022-11-20T12:14:40;29.70;;;17.30;;
75340;SDS011;64931;47.562;18.920;2022-11-20T12:17:11;28.00;;;17.10;;
75340;SDS011;64931;47.562;18.920;2022-11-20T12:19:37;27.30;;;14.80;;
75340;SDS011;64931;47.562;18.920;2022-11-20T12:30:49;24.40;;;14.40;;
75340;SDS011;64931;47.562;18.920;2022-11-20T12:33:33;29.00;;;17.00;;
75340;SDS011;64931;47.562;18.920;2022-11-20T12:36:12;28.30;;;16.50;;
75340;SDS011;64931;47.562;18.920;2022-11-20T13:07:24;35.60;;;19.80;;
75340;SDS011;64931;47.562;18.920;2022-11-20T13:09:51;31.90;;;15.50;;
75340;SDS011;64931;47.562;18.920;2022-11-20T13:12:24;30.70;;;17.10;;
75340;SDS011;64931;47.562;18.920;2022-11-20T13:15:21;30.70;;;17.30;;
75340;SDS011;64931;47.562;18.920;2022-11-20T13:17:54;31.70;;;17.10;;
75340;SDS011;64931;47.562;18.920;2022-11-20T13:20:22;28.20;;;16.60;;
75340;SDS011;64931;47.562;18.920;2022-11-20T13:22:49;30.30;;;15.50;;
75340;SDS011;64931;47.562;18.920;2022-11-20T13:28:23;31.00;;;17.30;;
75340;SDS011;64931;47.562;18.920;2022-11-20T13:30:54;30.90;;;15.70;;
75340;SDS011;64931;47.562;18.920;2022-11-20T13:35:58;29.10;;;16.40;;
75340;SDS011;64931;47.562;18.920;2022-11-20T13:38:27;31.40;;;17.60;;
75340;SDS011;64931;47.562;18.920;2022-11-20T13:40:57;29.50;;;16.90;;
75340;SDS011;64931;47.562;18.920;2022-11-20T13:43:28;31.80;;;18.10;;
75340;SDS011;64931;47.562;18.920;2022-11-20T13:46:00;29.70;;;16.50;;
75340;SDS011;64931;47.562;18.920;2022-11-20T13:48:29;26.90;;;15.20;;
75340;SDS011;64931;47.562;18.920;2022-11-20T14:02:11;27.20;;;15.10;;
75340;SDS011;64931;47.562;18.920;2022-11-20T14:04:38;32.00;;;18.20;;
75340;SDS011;64931;47.562;18.920;2022-11-20T14:07:08;31.60;;;17.90;;
75340;SDS011;64931;47.562;18.920;2022-11-20T14:09:34;31.00;;;16.90;;
75340;SDS011;64931;47.562;18.920;2022-11-20T14:12:01;29.30;;;16.50;;
75340;SDS011;64931;47.562;18.920;2022-11-20T14:14:28;29.90;;;16.50;;
75340;SDS011;64931;47.562;18.920;2022-11-20T14:17:07;26.50;;;14.40;;
75340;SDS011;64931;47.562;18.920;2022-11-20T14:19:33;28.10;;;15.70;;
75340;SDS011;64931;47.562;18.920;2022-11-20T14:27:37;28.60;;;15.20;;
75340;SDS011;64931;47.562;18.920;2022-11-20T14:30:15;29.90;;;16.00;;
75340;SDS011;64931;47.562;18.920;2022-11-20T14:32:43;29.10;;;16.30;;
75340;SDS011;64931;47.562;18.920;2022-11-20T14:35:10;28.30;;;14.50;;
75340;SDS011;64931;47.562;18.920;2022-11-20T14:38:00;24.90;;;13.10;;
75340;SDS011;64931;47.562;18.920;2022-11-20T14:40:27;29.00;;;14.50;;
75340;SDS011;64931;47.562;18.920;2022-11-20T14:43:00;26.50;;;14.30;;
75340;SDS011;64931;47.562;18.920;2022-11-20T14:45:25;27.50;;;14.30;;
75340;SDS011;64931;47.562;18.920;2022-11-20T14:47:51;29.30;;;15.00;;
75340;SDS011;64931;47.562;18.920;2022-11-20T14:50:19;33.00;;;15.10;;
75340;SDS011;64931;47.562;18.920;2022-11-20T14:52:51;25.40;;;12.90;;
75340;SDS011;64931;47.562;18.920;2022-11-20T14:57:55;24.40;;;12.50;;
75340;SDS011;64931;47.562;18.920;2022-11-20T15:00:21;29.50;;;14.10;;
75340;SDS011;64931;47.562;18.920;2022-11-20T15:02:48;32.70;;;16.20;;
75340;SDS011;64931;47.562;18.920;2022-11-20T15:05:16;33.40;;;16.80;;
75340;SDS011;64931;47.562;18.920;2022-11-20T15:07:44;29.10;;;15.00;;
75340;SDS011;64931;47.562;18.920;2022-11-20T15:12:50;30.80;;;14.90;;
75340;SDS011;64931;47.562;18.920;2022-11-20T15:15:21;35.30;;;17.50;;
75340;SDS011;64931;47.562;18.920;2022-11-20T15:18:03;31.70;;;16.10;;
75340;SDS011;64931;47.562;18.920;2022-11-20T15:20:30;27.60;;;14.40;;
75340;SDS011;64931;47.562;18.920;2022-11-20T15:22:56;28.00;;;14.20;;
75340;SDS011;64931;47.562;18.920;2022-11-20T15:25:22;28.10;;;14.80;;
75340;SDS011;64931;47.562;18.920;2022-11-20T15:27:51;26.90;;;13.30;;
75340;SDS011;64931;47.562;18.920;2022-11-20T15:30:19;26.20;;;13.40;;
75340;SDS011;64931;47.562;18.920;2022-11-20T15:32:45;27.20;;;13.70;;
75340;SDS011;64931;47.562;18.920;2022-11-20T15:35:11;28.90;;;14.50;;
75340;SDS011;64931;47.562;18.920;2022-11-20T15:37:38;27.30;;;12.90;;
75340;SDS011;64931;47.562;18.920;2022-11-20T15:40:04;29.50;;;15.10;;
75340;SDS011;64931;47.562;18.920;2022-11-20T15:42:30;29.50;;;14.40;;
75340;SDS011;64931;47.562;18.920;2022-11-20T15:44:56;28.50;;;14.10;;
75340;SDS011;64931;47.562;18.920;2022-11-20T15:47:32;28.50;;;13.10;;
75340;SDS011;64931;47.562;18.920;2022-11-20T15:49:59;24.00;;;12.10;;
75340;SDS011;64931;47.562;18.920;2022-11-20T15:52:24;26.20;;;13.20;;
75340;SDS011;64931;47.562;18.920;2022-11-20T15:54:50;31.00;;;14.30;;
75340;SDS011;64931;47.562;18.920;2022-11-20T15:57:15;33.40;;;16.10;;
75340;SDS011;64931;47.562;18.920;2022-11-20T15:59:41;22.50;;;12.20;;
75340;SDS011;64931;47.562;18.920;2022-11-20T16:02:13;28.10;;;13.80;;
75340;SDS011;64931;47.562;18.920;2022-11-20T16:04:39;23.10;;;11.90;;
75340;SDS011;64931;47.562;18.920;2022-11-20T16:07:05;25.20;;;12.30;;
75340;SDS011;64931;47.562;18.920;2022-11-20T16:09:30;27.80;;;13.80;;
75340;SDS011;64931;47.562;18.920;2022-11-20T16:11:56;24.90;;;13.30;;
75340;SDS011;64931;47.562;18.920;2022-11-20T16:14:24;25.60;;;12.80;;